createdAt,value
2023-01-08T00:01:24.090Z,6.56
2023-01-08T00:03:50.595Z,6.56
2023-01-08T00:06:16.916Z,6.12
2023-01-08T00:08:43.181Z,6.34
2023-01-08T00:11:09.534Z,6.44
2023-01-08T00:13:35.784Z,6.30
2023-01-08T00:16:02.067Z,6.21
2023-01-08T00:18:28.329Z,7.07
2023-01-08T00:20:54.610Z,6.70
2023-01-08T00:23:20.890Z,6.45
2023-01-08T00:25:47.173Z,6.98
2023-01-08T00:28:13.463Z,6.32
2023-01-08T00:30:39.787Z,6.41
2023-01-08T00:33:06.096Z,6.88
2023-01-08T00:35:32.389Z,6.65
2023-01-08T00:37:58.659Z,6.61
2023-01-08T00:40:24.942Z,6.86
2023-01-08T00:42:51.229Z,6.81
2023-01-08T00:45:17.509Z,6.75
2023-01-08T00:47:43.790Z,6.55
2023-01-08T00:50:10.057Z,6.19
2023-01-08T00:52:36.319Z,6.74
2023-01-08T00:55:02.563Z,6.37
2023-01-08T00:57:28.811Z,6.42
2023-01-08T00:59:55.080Z,6.44
2023-01-08T01:02:21.391Z,6.26
2023-01-08T01:04:47.668Z,6.47
2023-01-08T01:07:13.926Z,6.31
2023-01-08T01:09:40.165Z,5.84
2023-01-08T01:12:06.441Z,5.71
2023-01-08T01:14:32.704Z,5.89
2023-01-08T01:16:59.078Z,5.97
2023-01-08T01:19:25.434Z,6.11
2023-01-08T01:21:51.681Z,5.86
2023-01-08T01:24:17.950Z,5.59
2023-01-08T01:26:44.224Z,5.61
2023-01-08T01:29:10.477Z,6.04
2023-01-08T01:31:36.747Z,5.82
2023-01-08T01:34:02.997Z,5.77
2023-01-08T01:36:29.248Z,5.34
2023-01-08T01:38:55.512Z,5.51
2023-01-08T01:41:21.792Z,5.10
2023-01-08T01:43:48.061Z,4.96
2023-01-08T01:46:14.393Z,4.73
2023-01-08T01:48:40.694Z,5.00
2023-01-08T01:51:06.954Z,5.32
2023-01-08T01:53:33.221Z,5.48
2023-01-08T01:55:59.495Z,5.29
2023-01-08T01:58:25.759Z,5.74
2023-01-08T02:00:52.103Z,5.21
2023-01-08T02:03:18.384Z,5.44
2023-01-08T02:05:44.642Z,5.41
2023-01-08T02:08:10.903Z,5.40
2023-01-08T02:10:37.192Z,5.27
2023-01-08T02:13:03.453Z,5.45
2023-01-08T02:15:29.699Z,5.45
2023-01-08T02:17:56.013Z,5.57
2023-01-08T02:20:22.327Z,5.52
2023-01-08T02:22:48.601Z,5.28
2023-01-08T02:25:14.874Z,5.63
2023-01-08T02:27:41.144Z,5.27
2023-01-08T02:30:07.396Z,4.97
2023-01-08T02:32:33.648Z,5.37
2023-01-08T02:34:59.890Z,5.31
2023-01-08T02:37:26.203Z,5.66
2023-01-08T02:39:52.506Z,5.92
2023-01-08T02:42:18.767Z,5.73
2023-01-08T02:44:45.081Z,5.87
2023-01-08T02:47:11.342Z,5.99
2023-01-08T02:49:37.615Z,5.75
2023-01-08T02:52:03.868Z,5.97
2023-01-08T02:54:30.131Z,5.86
2023-01-08T02:56:56.382Z,5.09
2023-01-08T02:59:22.642Z,5.61
2023-01-08T03:01:49.026Z,4.92
2023-01-08T03:04:15.440Z,5.05
2023-01-08T03:06:41.736Z,4.66
2023-01-08T03:09:07.988Z,4.48
2023-01-08T03:11:34.279Z,4.67
2023-01-08T03:14:00.535Z,4.35
2023-01-08T03:16:26.828Z,4.76
2023-01-08T03:18:53.096Z,4.81
2023-01-08T03:21:19.408Z,4.73
2023-01-08T03:23:45.672Z,4.63
2023-01-08T03:26:11.953Z,4.71
2023-01-08T03:28:38.251Z,4.92
2023-01-08T03:31:04.560Z,4.44
2023-01-08T03:33:30.852Z,4.77
2023-01-08T03:35:57.114Z,4.59
2023-01-08T03:38:23.375Z,4.71
2023-01-08T03:40:49.666Z,4.90
2023-01-08T03:43:15.953Z,4.85
2023-01-08T03:45:42.209Z,4.47
2023-01-08T03:48:08.459Z,4.29
2023-01-08T03:50:34.723Z,4.18
2023-01-08T03:53:01.173Z,4.24
2023-01-08T03:55:27.487Z,4.19
2023-01-08T03:57:53.770Z,4.49
2023-01-08T04:00:20.048Z,4.30
2023-01-08T04:02:46.314Z,4.06
2023-01-08T04:05:12.606Z,4.26
2023-01-08T04:07:38.897Z,3.84
2023-01-08T04:10:05.173Z,4.01
2023-01-08T04:12:31.458Z,3.70
2023-01-08T04:14:57.727Z,3.81
2023-01-08T04:17:24.008Z,3.82
2023-01-08T04:19:50.288Z,4.15
2023-01-08T04:22:16.552Z,3.66
2023-01-08T04:24:42.856Z,3.62
2023-01-08T04:27:09.133Z,3.47
2023-01-08T04:29:35.374Z,3.27
2023-01-08T04:32:01.648Z,3.33
2023-01-08T04:34:27.933Z,3.21
2023-01-08T04:36:54.250Z,2.96
2023-01-08T04:39:20.537Z,2.88
2023-01-08T04:41:46.828Z,3.28
2023-01-08T04:44:13.087Z,3.00
2023-01-08T04:46:39.396Z,3.18
2023-01-08T04:49:05.710Z,3.15
2023-01-08T04:51:31.949Z,3.04
2023-01-08T04:53:58.225Z,3.09
2023-01-08T04:56:24.487Z,2.82
2023-01-08T04:58:50.737Z,2.58
2023-01-08T05:01:17.144Z,2.99
2023-01-08T05:03:43.504Z,2.93
2023-01-08T05:06:09.775Z,2.84
2023-01-08T05:08:36.111Z,3.09
2023-01-08T05:11:02.375Z,3.12
2023-01-08T05:13:28.632Z,3.10
2023-01-08T05:15:54.935Z,3.15
2023-01-08T05:18:21.300Z,2.84
2023-01-08T05:20:47.576Z,3.02
2023-01-08T05:23:13.849Z,2.86
2023-01-08T05:25:40.133Z,2.88
2023-01-08T05:28:06.387Z,2.85
2023-01-08T05:30:32.653Z,3.08
2023-01-08T05:32:58.948Z,3.14
2023-01-08T05:35:25.217Z,3.27
2023-01-08T05:37:51.469Z,2.90
2023-01-08T05:40:17.732Z,2.97
2023-01-08T05:42:44.000Z,3.10
2023-01-08T05:45:10.269Z,3.11
2023-01-08T05:47:36.545Z,3.42
2023-01-08T05:50:02.805Z,3.20
2023-01-08T05:52:29.085Z,2.94
2023-01-08T05:54:55.337Z,3.11
2023-01-08T05:57:21.605Z,2.97
2023-01-08T05:59:47.883Z,3.07
2023-01-08T06:02:14.170Z,2.92
2023-01-08T06:04:40.522Z,3.15
2023-01-08T06:07:06.816Z,2.81
2023-01-08T06:09:33.128Z,2.87
2023-01-08T06:11:59.412Z,2.84
2023-01-08T06:14:25.685Z,2.75
2023-01-08T06:16:51.953Z,2.73
2023-01-08T06:19:18.228Z,2.48
2023-01-08T06:21:44.485Z,2.33
2023-01-08T06:24:10.761Z,2.17
2023-01-08T06:26:37.067Z,2.28
2023-01-08T06:29:03.409Z,2.11
2023-01-08T06:31:29.781Z,2.15
2023-01-08T06:33:56.065Z,2.16
2023-01-08T06:36:22.349Z,2.12
2023-01-08T06:38:48.674Z,2.17
2023-01-08T06:41:14.945Z,2.22
2023-01-08T06:43:41.189Z,2.08
2023-01-08T06:46:07.480Z,2.15
2023-01-08T06:48:33.751Z,2.37
2023-01-08T06:51:00.006Z,2.17
2023-01-08T06:53:26.288Z,2.46
2023-01-08T06:55:52.555Z,2.59
2023-01-08T06:58:18.834Z,2.37
2023-01-08T07:00:45.097Z,2.69
2023-01-08T07:03:11.412Z,2.99
2023-01-08T07:05:37.729Z,2.96
2023-01-08T07:08:04.008Z,3.04
2023-01-08T07:10:30.326Z,3.44
2023-01-08T07:12:56.613Z,3.37
2023-01-08T07:15:22.980Z,3.28
2023-01-08T07:17:49.225Z,3.59
2023-01-08T07:20:15.499Z,3.45
2023-01-08T07:22:41.777Z,3.51
2023-01-08T07:25:08.047Z,3.73
2023-01-08T07:27:34.309Z,3.53
2023-01-08T07:30:00.592Z,3.94
2023-01-08T07:32:26.865Z,3.90
2023-01-08T07:34:53.156Z,3.57
2023-01-08T07:37:19.417Z,3.86
2023-01-08T07:39:45.760Z,3.89
2023-01-08T07:42:12.014Z,3.72
2023-01-08T07:44:38.273Z,3.92
2023-01-08T07:47:04.541Z,4.03
2023-01-08T07:49:30.810Z,3.69
2023-01-08T07:51:57.065Z,3.86
2023-01-08T07:54:23.331Z,3.70
2023-01-08T07:56:49.589Z,3.95
2023-01-08T07:59:15.849Z,4.09
2023-01-08T08:01:42.184Z,3.93
2023-01-08T08:04:08.549Z,3.72
2023-01-08T08:06:34.820Z,3.75
2023-01-08T08:09:01.106Z,4.00
2023-01-08T08:11:27.388Z,3.69
2023-01-08T08:13:55.871Z,3.96
2023-01-08T08:16:22.942Z,3.84
2023-01-08T08:18:49.266Z,3.69
2023-01-08T08:21:15.568Z,3.43
2023-01-08T08:23:41.859Z,3.34
2023-01-08T08:26:08.117Z,2.99
2023-01-08T08:28:34.423Z,3.44
2023-01-08T08:31:00.776Z,3.44
2023-01-08T08:33:27.142Z,3.20
2023-01-08T08:35:53.414Z,3.41
2023-01-08T08:38:19.682Z,3.42
2023-01-08T08:40:45.969Z,3.46
2023-01-08T08:43:12.223Z,3.25
2023-01-08T08:45:38.507Z,3.93
2023-01-08T08:48:04.827Z,3.51
2023-01-08T08:50:31.166Z,3.26
2023-01-08T08:52:57.455Z,3.14
2023-01-08T08:55:23.715Z,3.56
2023-01-08T08:57:50.041Z,3.53
2023-01-08T09:00:16.316Z,3.13
2023-01-08T09:02:42.767Z,2.91
2023-01-08T09:05:09.117Z,2.80
2023-01-08T09:07:35.397Z,2.88
2023-01-08T09:10:01.687Z,2.94
2023-01-08T09:12:27.954Z,2.85
2023-01-08T09:14:54.205Z,2.64
2023-01-08T09:17:20.501Z,2.84
2023-01-08T09:19:46.746Z,2.96
2023-01-08T09:22:13.004Z,3.36
2023-01-08T09:24:39.275Z,3.41
2023-01-08T09:27:05.547Z,3.42
2023-01-08T09:29:31.800Z,3.44
2023-01-08T09:31:58.114Z,3.05
2023-01-08T09:34:24.441Z,3.48
2023-01-08T09:36:50.709Z,2.65
2023-01-08T09:39:16.984Z,2.55
2023-01-08T09:41:43.262Z,2.53
2023-01-08T09:44:09.510Z,2.32
2023-01-08T09:46:35.842Z,3.02
2023-01-08T09:49:02.178Z,3.18
2023-01-08T09:51:28.421Z,2.84
2023-01-08T09:53:54.678Z,2.50
2023-01-08T09:56:20.956Z,2.60
2023-01-08T09:58:47.227Z,2.77
2023-01-08T10:01:13.624Z,2.78
2023-01-08T10:03:39.958Z,2.62
2023-01-08T10:06:06.238Z,2.71
2023-01-08T10:08:32.516Z,2.96
2023-01-08T10:10:58.806Z,2.92
2023-01-08T10:13:25.079Z,3.37
2023-01-08T10:15:51.404Z,3.95
2023-01-08T10:18:17.695Z,3.36
2023-01-08T10:20:43.975Z,3.05
2023-01-08T10:23:10.236Z,3.15
2023-01-08T10:25:36.512Z,3.87
2023-01-08T10:28:02.771Z,3.66
2023-01-08T10:30:29.023Z,3.87
2023-01-08T10:32:55.284Z,3.60
2023-01-08T10:35:21.569Z,3.88
2023-01-08T10:37:47.844Z,3.66
2023-01-08T10:40:14.134Z,3.33
2023-01-08T10:42:40.405Z,3.51
2023-01-08T10:45:07.834Z,4.16
2023-01-08T10:47:34.277Z,6.93
2023-01-08T10:50:00.599Z,5.22
2023-01-08T10:52:26.848Z,4.09
2023-01-08T10:54:53.116Z,3.45
2023-01-08T10:57:19.383Z,3.38
2023-01-08T10:59:45.663Z,3.49
2023-01-08T11:02:12.024Z,3.11
2023-01-08T11:04:38.371Z,3.34
2023-01-08T11:07:04.662Z,3.30
2023-01-08T11:09:30.936Z,3.30
2023-01-08T11:11:57.274Z,3.12
2023-01-08T11:14:23.545Z,3.03
2023-01-08T11:16:49.818Z,3.33
2023-01-08T11:19:16.403Z,2.89
2023-01-08T11:21:42.663Z,2.75
2023-01-08T11:24:08.951Z,2.64
2023-01-08T11:26:35.241Z,2.71
2023-01-08T11:29:01.510Z,3.22
2023-01-08T11:31:27.764Z,3.08
2023-01-08T11:33:54.023Z,2.88
2023-01-08T11:36:20.303Z,2.96
2023-01-08T11:38:46.597Z,3.17
2023-01-08T11:41:12.899Z,3.05
2023-01-08T11:43:39.159Z,3.20
2023-01-08T11:46:05.455Z,3.12
2023-01-08T11:48:31.758Z,3.06
2023-01-08T11:50:58.052Z,3.78
2023-01-08T11:53:24.325Z,3.67
2023-01-08T11:55:50.621Z,3.21
2023-01-08T11:58:16.892Z,3.04
2023-01-08T12:00:43.172Z,3.16
2023-01-08T12:03:09.452Z,3.27
2023-01-08T12:05:35.737Z,3.41
2023-01-08T12:08:02.018Z,4.15
2023-01-08T12:10:28.302Z,4.23
2023-01-08T12:12:54.598Z,4.42
2023-01-08T12:15:20.863Z,3.79
2023-01-08T12:17:47.215Z,3.76
2023-01-08T12:20:13.524Z,3.62
2023-01-08T12:22:39.799Z,3.75
2023-01-08T12:25:06.084Z,4.11
2023-01-08T12:27:55.300Z,4.30
2023-01-08T12:30:18.632Z,4.52
2023-01-08T12:32:45.004Z,4.32
2023-01-08T12:35:11.288Z,4.46
2023-01-08T12:37:37.577Z,4.53
2023-01-08T12:40:03.856Z,3.68
2023-01-08T12:42:30.135Z,3.53
2023-01-08T12:44:56.412Z,3.76
2023-01-08T12:47:22.712Z,3.82
2023-01-08T12:49:49.002Z,3.94
2023-01-08T12:52:15.298Z,3.87
2023-01-08T12:54:41.554Z,3.74
2023-01-08T12:57:07.840Z,3.48
2023-01-08T12:59:34.119Z,3.42
2023-01-08T13:02:00.525Z,5.40
2023-01-08T13:04:26.945Z,6.69
2023-01-08T13:06:53.223Z,10.33
2023-01-08T13:09:19.527Z,11.95
2023-01-08T13:11:45.818Z,8.64
2023-01-08T13:14:12.106Z,6.22
2023-01-08T13:16:38.457Z,5.32
2023-01-08T13:19:04.767Z,3.93
2023-01-08T13:21:31.040Z,3.53
2023-01-08T13:23:57.308Z,4.52
2023-01-08T13:26:23.595Z,4.10
2023-01-08T13:28:49.869Z,3.76
2023-01-08T13:31:16.211Z,3.93
2023-01-08T13:33:42.517Z,3.73
2023-01-08T13:36:08.912Z,3.52
2023-01-08T13:38:35.196Z,3.84
2023-01-08T13:41:01.451Z,3.37
2023-01-08T13:43:27.745Z,3.30
2023-01-08T13:45:54.095Z,3.38
2023-01-08T13:48:20.364Z,3.69
2023-01-08T13:50:46.614Z,3.65
2023-01-08T13:53:13.191Z,3.00
2023-01-08T13:55:39.623Z,2.83
2023-01-08T13:58:05.941Z,2.77
2023-01-08T14:00:32.277Z,2.66
2023-01-08T14:02:58.687Z,2.53
2023-01-08T14:05:24.980Z,2.85
2023-01-08T14:07:51.257Z,3.81
2023-01-08T14:10:17.618Z,4.08
2023-01-08T14:12:43.949Z,3.30
2023-01-08T14:15:10.269Z,3.44
2023-01-08T14:17:36.564Z,2.69
2023-01-08T14:20:02.845Z,2.83
2023-01-08T14:22:29.118Z,3.55
2023-01-08T14:24:55.432Z,3.78
2023-01-08T14:27:21.711Z,3.83
2023-01-08T14:29:47.994Z,3.70
2023-01-08T14:32:14.263Z,3.83
2023-01-08T14:34:40.551Z,3.91
2023-01-08T14:37:06.797Z,3.59
2023-01-08T14:39:33.164Z,3.57
2023-01-08T14:41:59.463Z,3.31
2023-01-08T14:44:36.258Z,4.59
2023-01-08T14:47:04.224Z,5.14
2023-01-08T14:49:30.580Z,4.78
2023-01-08T14:51:56.821Z,4.69
2023-01-08T14:54:23.065Z,4.35
2023-01-08T14:56:49.328Z,3.69
2023-01-08T14:59:15.592Z,3.27
2023-01-08T15:01:42.045Z,3.58
2023-01-08T15:04:08.350Z,2.72
2023-01-08T15:06:34.636Z,2.96
2023-01-08T15:09:00.936Z,4.58
2023-01-08T15:11:27.546Z,4.09
2023-01-08T15:13:54.515Z,3.33
2023-01-08T15:16:20.822Z,4.52
2023-01-08T15:18:47.145Z,4.51
2023-01-08T15:21:13.417Z,4.29
2023-01-08T15:23:39.682Z,4.03
2023-01-08T15:26:06.025Z,3.65
2023-01-08T15:28:32.342Z,3.99
2023-01-08T15:30:58.592Z,4.61
2023-01-08T15:33:24.884Z,3.78
2023-01-08T15:35:51.187Z,3.85
2023-01-08T15:38:17.459Z,5.29
2023-01-08T15:40:43.729Z,10.48
2023-01-08T15:43:10.028Z,5.65
2023-01-08T15:45:36.308Z,4.54
2023-01-08T15:48:02.657Z,4.30
2023-01-08T15:50:28.983Z,3.74
2023-01-08T15:52:55.311Z,3.58
2023-01-08T15:55:21.669Z,3.23
2023-01-08T15:57:47.977Z,3.29
2023-01-08T16:00:14.271Z,3.33
2023-01-08T16:02:40.619Z,3.62
2023-01-08T16:05:06.895Z,3.57
2023-01-08T16:07:33.159Z,3.53
2023-01-08T16:09:59.431Z,3.95
2023-01-08T16:12:25.685Z,3.93
2023-01-08T16:14:52.042Z,3.72
2023-01-08T16:17:18.289Z,3.58
2023-01-08T16:19:44.629Z,4.05
2023-01-08T16:22:10.922Z,3.80
2023-01-08T16:24:39.655Z,3.66
2023-01-08T16:27:06.672Z,3.95
2023-01-08T16:29:32.935Z,4.17
2023-01-08T16:31:59.286Z,4.62
2023-01-08T16:34:25.606Z,4.54
2023-01-08T16:36:51.875Z,4.29
2023-01-08T16:39:18.167Z,4.31
2023-01-08T16:41:44.444Z,3.69
2023-01-08T16:44:10.736Z,3.21
2023-01-08T16:46:37.002Z,3.32
2023-01-08T16:49:03.261Z,3.55
2023-01-08T16:51:29.528Z,3.24
2023-01-08T16:53:55.803Z,3.07
2023-01-08T16:56:22.064Z,2.75
2023-01-08T16:58:48.346Z,2.69
2023-01-08T17:01:14.793Z,2.52
2023-01-08T17:03:41.191Z,2.77
2023-01-08T17:06:07.533Z,2.73
2023-01-08T17:08:33.814Z,2.93
2023-01-08T17:11:00.098Z,4.59
2023-01-08T17:13:26.375Z,3.61
2023-01-08T17:15:52.689Z,2.97
2023-01-08T17:18:18.987Z,3.55
2023-01-08T17:20:45.274Z,6.07
2023-01-08T17:23:11.541Z,6.98
2023-01-08T17:25:37.826Z,6.68
2023-01-08T17:28:04.109Z,6.61
2023-01-08T17:30:30.394Z,7.44
2023-01-08T17:32:56.704Z,7.59
2023-01-08T17:35:22.972Z,6.44
2023-01-08T17:37:49.234Z,5.85
2023-01-08T17:40:15.556Z,4.72
2023-01-08T17:42:41.806Z,3.79
2023-01-08T17:45:08.120Z,2.25
2023-01-08T17:47:34.388Z,2.46
2023-01-08T17:50:00.654Z,3.63
2023-01-08T17:52:26.913Z,5.09
2023-01-08T17:54:53.189Z,5.14
2023-01-08T17:57:19.476Z,4.42
2023-01-08T17:59:45.778Z,3.84
2023-01-08T18:02:13.913Z,3.60
2023-01-08T18:04:41.897Z,3.49
2023-01-08T18:07:08.179Z,3.33
2023-01-08T18:09:36.661Z,2.99
2023-01-08T18:12:03.131Z,2.96
2023-01-08T18:14:29.402Z,2.47
2023-01-08T18:16:55.667Z,2.46
2023-01-08T18:19:21.910Z,2.68
2023-01-08T18:21:48.161Z,2.68
2023-01-08T18:24:14.405Z,2.56
2023-01-08T18:26:40.675Z,2.71
2023-01-08T18:29:06.938Z,2.59
2023-01-08T18:31:33.212Z,2.57
2023-01-08T18:33:59.494Z,2.10
2023-01-08T18:36:25.783Z,1.89
2023-01-08T18:38:52.051Z,2.24
2023-01-08T18:41:18.343Z,2.06
2023-01-08T18:43:46.191Z,2.18
2023-01-08T18:46:12.621Z,2.20
2023-01-08T18:48:38.877Z,1.86
2023-01-08T18:51:05.149Z,1.69
2023-01-08T18:53:31.411Z,1.56
2023-01-08T18:55:57.677Z,1.56
2023-01-08T18:58:23.967Z,1.44
2023-01-08T19:00:50.347Z,1.49
2023-01-08T19:03:16.658Z,2.02
2023-01-08T19:05:42.956Z,2.26
2023-01-08T19:08:09.269Z,2.42
2023-01-08T19:10:35.557Z,2.60
2023-01-08T19:13:01.816Z,2.46
2023-01-08T19:15:28.090Z,2.01
2023-01-08T19:17:54.346Z,1.85
2023-01-08T19:20:20.613Z,2.12
2023-01-08T19:22:46.855Z,2.09
2023-01-08T19:25:13.096Z,1.95
2023-01-08T19:27:39.343Z,1.96
2023-01-08T19:30:05.607Z,2.02
2023-01-08T19:32:31.919Z,1.55
2023-01-08T19:34:58.172Z,1.55
2023-01-08T19:37:24.454Z,1.41
2023-01-08T19:39:50.735Z,1.39
2023-01-08T19:42:16.996Z,1.42
2023-01-08T19:44:43.359Z,1.35
2023-01-08T19:47:09.619Z,1.36
2023-01-08T19:49:35.879Z,1.42
2023-01-08T19:52:02.160Z,2.08
2023-01-08T19:54:28.432Z,2.04
2023-01-08T19:56:54.769Z,2.07
2023-01-08T19:59:21.020Z,1.84
2023-01-08T20:01:47.367Z,2.17
2023-01-08T20:04:13.690Z,1.98
2023-01-08T20:06:39.963Z,1.89
2023-01-08T20:09:06.243Z,2.23
2023-01-08T20:11:32.529Z,2.43
2023-01-08T20:13:58.800Z,2.93
2023-01-08T20:16:25.191Z,2.37
2023-01-08T20:18:51.530Z,2.59
2023-01-08T20:21:17.885Z,3.38
2023-01-08T20:23:44.156Z,4.37
2023-01-08T20:26:10.433Z,4.89
2023-01-08T20:28:36.702Z,2.94
2023-01-08T20:31:02.959Z,2.69
2023-01-08T20:33:29.243Z,2.20
2023-01-08T20:35:55.488Z,2.21
2023-01-08T20:38:21.752Z,2.96
2023-01-08T20:40:48.014Z,3.35
2023-01-08T20:43:14.283Z,2.78
2023-01-08T20:45:40.597Z,2.48
2023-01-08T20:48:06.872Z,1.89
2023-01-08T20:50:33.117Z,1.82
2023-01-08T20:52:59.392Z,2.22
2023-01-08T20:55:25.664Z,2.34
2023-01-08T20:57:51.936Z,2.91
2023-01-08T21:00:18.210Z,3.03
2023-01-08T21:02:44.498Z,3.16
2023-01-08T21:05:10.753Z,3.60
2023-01-08T21:07:37.035Z,3.62
2023-01-08T21:10:03.311Z,3.09
2023-01-08T21:12:29.597Z,3.26
2023-01-08T21:14:55.854Z,3.00
2023-01-08T21:17:22.280Z,3.00
2023-01-08T21:19:48.552Z,2.91
2023-01-08T21:22:14.829Z,2.38
2023-01-08T21:24:41.137Z,1.91
2023-01-08T21:27:07.387Z,1.83
2023-01-08T21:29:33.641Z,1.77
2023-01-08T21:32:00.024Z,2.22
2023-01-08T21:34:26.332Z,3.15
2023-01-08T21:36:52.575Z,2.74
2023-01-08T21:39:19.913Z,3.98
2023-01-08T21:41:46.195Z,2.08
2023-01-08T21:44:12.441Z,2.23
2023-01-08T21:46:38.705Z,2.20
2023-01-08T21:49:04.959Z,2.27
2023-01-08T21:51:31.234Z,2.38
2023-01-08T21:53:57.517Z,2.87
2023-01-08T21:56:23.795Z,2.93
2023-01-08T21:58:50.062Z,3.31
2023-01-08T22:01:16.417Z,2.73
2023-01-08T22:03:42.738Z,2.92
2023-01-08T22:06:09.046Z,2.63
2023-01-08T22:08:35.332Z,3.06
2023-01-08T22:11:01.611Z,3.16
2023-01-08T22:13:27.942Z,3.85
2023-01-08T22:15:54.207Z,4.49
2023-01-08T22:18:20.452Z,4.52
2023-01-08T22:20:46.737Z,4.56
2023-01-08T22:23:13.014Z,4.84
2023-01-08T22:25:39.287Z,4.63
2023-01-08T22:28:05.559Z,4.98
2023-01-08T22:30:31.826Z,4.91
2023-01-08T22:32:58.081Z,4.99
2023-01-08T22:35:24.332Z,5.11
2023-01-08T22:37:50.617Z,4.99
2023-01-08T22:40:16.902Z,5.32
2023-01-08T22:42:43.174Z,5.83
2023-01-08T22:45:09.428Z,5.87
2023-01-08T22:47:35.772Z,5.55
2023-01-08T22:50:02.071Z,5.75
2023-01-08T22:52:28.353Z,5.72
2023-01-08T22:54:54.613Z,6.14
2023-01-08T22:57:20.872Z,4.74
2023-01-08T22:59:47.152Z,4.00
2023-01-08T23:02:13.401Z,3.73
2023-01-08T23:04:39.653Z,3.62
2023-01-08T23:07:05.922Z,3.46
2023-01-08T23:09:32.187Z,3.09
2023-01-08T23:11:58.461Z,3.21
2023-01-08T23:14:24.716Z,3.03
2023-01-08T23:16:51.063Z,3.16
2023-01-08T23:19:17.370Z,3.22
2023-01-08T23:21:43.631Z,3.30
2023-01-08T23:24:09.885Z,3.10
2023-01-08T23:26:36.173Z,3.16
2023-01-08T23:29:02.458Z,2.90
2023-01-08T23:31:28.775Z,2.97
2023-01-08T23:33:55.093Z,2.85
2023-01-08T23:36:21.451Z,2.97
2023-01-08T23:38:47.815Z,2.85
2023-01-08T23:41:14.085Z,3.06
2023-01-08T23:43:40.368Z,3.00
2023-01-08T23:46:06.669Z,3.09
2023-01-08T23:48:32.965Z,3.07
2023-01-08T23:50:59.238Z,2.95
2023-01-08T23:53:25.485Z,2.95
2023-01-08T23:55:51.733Z,3.00
2023-01-08T23:58:17.983Z,3.09
